sensor_id;sensor_type;location;lat;lon;timestamp;temperature;humidity
3792;DHT22;1911;53.768;11.474;2024-02-26T00:01:54;2.40;99.90
3792;DHT22;1911;53.768;11.474;2024-02-26T00:04:19;2.30;99.90
3792;DHT22;1911;53.768;11.474;2024-02-26T00:06:46;2.30;99.90
3792;DHT22;1911;53.768;11.474;2024-02-26T00:09:11;2.30;99.90
3792;DHT22;1911;53.768;11.474;2024-02-26T00:11:37;2.20;99.90
3792;DHT22;1911;53.768;11.474;2024-02-26T00:14:03;2.20;99.90
3792;DHT22;1911;53.768;11.474;2024-02-26T00:16:29;2.10;99.90
3792;DHT22;1911;53.768;11.474;2024-02-26T00:18:54;2.10;99.90
3792;DHT22;1911;53.768;11.474;2024-02-26T00:21:20;2.10;99.90
3792;DHT22;1911;53.768;11.474;2024-02-26T00:23:45;2.00;99.90
3792;DHT22;1911;53.768;11.474;2024-02-26T00:26:11;2.00;99.90
3792;DHT22;1911;53.768;11.474;2024-02-26T00:28:37;2.10;99.90
3792;DHT22;1911;53.768;11.474;2024-02-26T00:31:03;2.10;99.90
3792;DHT22;1911;53.768;11.474;2024-02-26T00:33:28;2.10;99.90
3792;DHT22;1911;53.768;11.474;2024-02-26T00:35:54;2.00;99.90
3792;DHT22;1911;53.768;11.474;2024-02-26T00:38:20;1.90;99.90
3792;DHT22;1911;53.768;11.474;2024-02-26T00:40:45;1.80;99.90
3792;DHT22;1911;53.768;11.474;2024-02-26T00:43:11;1.80;99.90
3792;DHT22;1911;53.768;11.474;2024-02-26T00:45:37;1.90;99.90
3792;DHT22;1911;53.768;11.474;2024-02-26T00:48:02;2.00;99.90
3792;DHT22;1911;53.768;11.474;2024-02-26T00:50:36;1.90;99.90
3792;DHT22;1911;53.768;11.474;2024-02-26T00:53:01;1.90;99.90
3792;DHT22;1911;53.768;11.474;2024-02-26T00:55:27;1.90;99.90
3792;DHT22;1911;53.768;11.474;2024-02-26T00:57:53;1.80;99.90
3792;DHT22;1911;53.768;11.474;2024-02-26T01:00:18;1.70;99.90
3792;DHT22;1911;53.768;11.474;2024-02-26T01:02:44;1.70;99.90
3792;DHT22;1911;53.768;11.474;2024-02-26T01:05:12;1.70;99.90
3792;DHT22;1911;53.768;11.474;2024-02-26T01:07:38;1.70;99.90
3792;DHT22;1911;53.768;11.474;2024-02-26T01:10:05;1.70;99.90
3792;DHT22;1911;53.768;11.474;2024-02-26T01:12:34;1.70;99.90
3792;DHT22;1911;53.768;11.474;2024-02-26T01:15:01;1.60;99.90
3792;DHT22;1911;53.768;11.474;2024-02-26T01:17:28;1.60;99.90
3792;DHT22;1911;53.768;11.474;2024-02-26T01:19:54;1.60;99.90
3792;DHT22;1911;53.768;11.474;2024-02-26T01:22:19;1.50;99.90
3792;DHT22;1911;53.768;11.474;2024-02-26T01:24:45;1.50;99.90
3792;DHT22;1911;53.768;11.474;2024-02-26T01:27:10;1.40;99.90
3792;DHT22;1911;53.768;11.474;2024-02-26T01:29:36;1.40;99.90
3792;DHT22;1911;53.768;11.474;2024-02-26T01:32:02;1.30;99.90
3792;DHT22;1911;53.768;11.474;2024-02-26T01:34:29;1.30;99.90
3792;DHT22;1911;53.768;11.474;2024-02-26T01:36:55;1.30;99.90
3792;DHT22;1911;53.768;11.474;2024-02-26T01:39:21;1.30;99.90
3792;DHT22;1911;53.768;11.474;2024-02-26T01:41:47;1.20;99.90
3792;DHT22;1911;53.768;11.474;2024-02-26T01:44:13;1.20;99.90
3792;DHT22;1911;53.768;11.474;2024-02-26T01:46:39;1.20;99.90
3792;DHT22;1911;53.768;11.474;2024-02-26T01:49:06;1.20;99.90
3792;DHT22;1911;53.768;11.474;2024-02-26T01:51:32;1.20;99.90
3792;DHT22;1911;53.768;11.474;2024-02-26T01:53:59;1.30;99.90
3792;DHT22;1911;53.768;11.474;2024-02-26T01:56:26;1.30;99.90
3792;DHT22;1911;53.768;11.474;2024-02-26T01:59:06;1.30;99.90
3792;DHT22;1911;53.768;11.474;2024-02-26T02:01:39;1.80;99.90
3792;DHT22;1911;53.768;11.474;2024-02-26T02:04:09;1.30;99.90
3792;DHT22;1911;53.768;11.474;2024-02-26T02:06:36;1.30;99.90
3792;DHT22;1911;53.768;11.474;2024-02-26T02:09:01;1.20;99.90
3792;DHT22;1911;53.768;11.474;2024-02-26T02:11:34;1.20;99.90
3792;DHT22;1911;53.768;11.474;2024-02-26T02:14:00;1.20;99.90
3792;DHT22;1911;53.768;11.474;2024-02-26T02:16:25;1.20;99.90
3792;DHT22;1911;53.768;11.474;2024-02-26T02:18:51;1.20;99.90
3792;DHT22;1911;53.768;11.474;2024-02-26T02:21:17;1.20;99.90
3792;DHT22;1911;53.768;11.474;2024-02-26T02:23:42;1.20;99.90
3792;DHT22;1911;53.768;11.474;2024-02-26T02:26:12;1.20;99.90
3792;DHT22;1911;53.768;11.474;2024-02-26T02:28:39;1.20;99.90
3792;DHT22;1911;53.768;11.474;2024-02-26T02:31:05;1.20;99.90
3792;DHT22;1911;53.768;11.474;2024-02-26T02:33:31;1.20;99.90
3792;DHT22;1911;53.768;11.474;2024-02-26T02:35:57;1.10;99.90
3792;DHT22;1911;53.768;11.474;2024-02-26T02:38:23;1.10;99.90
3792;DHT22;1911;53.768;11.474;2024-02-26T02:40:51;1.00;99.90
3792;DHT22;1911;53.768;11.474;2024-02-26T02:43:17;1.10;99.90
3792;DHT22;1911;53.768;11.474;2024-02-26T02:45:42;1.10;99.90
3792;DHT22;1911;53.768;11.474;2024-02-26T02:48:08;1.00;99.90
3792;DHT22;1911;53.768;11.474;2024-02-26T02:50:33;1.10;99.90
3792;DHT22;1911;53.768;11.474;2024-02-26T02:52:59;1.10;99.90
3792;DHT22;1911;53.768;11.474;2024-02-26T02:55:25;1.10;99.90
3792;DHT22;1911;53.768;11.474;2024-02-26T02:57:50;1.00;99.90
3792;DHT22;1911;53.768;11.474;2024-02-26T03:00:16;1.00;99.90
3792;DHT22;1911;53.768;11.474;2024-02-26T03:02:42;1.00;99.90
3792;DHT22;1911;53.768;11.474;2024-02-26T03:05:08;0.90;99.90
3792;DHT22;1911;53.768;11.474;2024-02-26T03:07:34;0.90;99.90
3792;DHT22;1911;53.768;11.474;2024-02-26T03:09:59;0.80;99.90
3792;DHT22;1911;53.768;11.474;2024-02-26T03:12:25;0.80;99.90
3792;DHT22;1911;53.768;11.474;2024-02-26T03:14:51;0.80;99.90
3792;DHT22;1911;53.768;11.474;2024-02-26T03:17:17;0.90;99.90
3792;DHT22;1911;53.768;11.474;2024-02-26T03:19:44;0.80;99.90
3792;DHT22;1911;53.768;11.474;2024-02-26T03:22:12;0.80;99.90
3792;DHT22;1911;53.768;11.474;2024-02-26T03:24:38;0.70;99.90
3792;DHT22;1911;53.768;11.474;2024-02-26T03:27:03;0.70;99.90
3792;DHT22;1911;53.768;11.474;2024-02-26T03:29:35;0.50;99.90
3792;DHT22;1911;53.768;11.474;2024-02-26T03:32:00;0.50;99.90
3792;DHT22;1911;53.768;11.474;2024-02-26T03:34:26;0.40;99.90
3792;DHT22;1911;53.768;11.474;2024-02-26T03:36:52;0.40;99.90
3792;DHT22;1911;53.768;11.474;2024-02-26T03:39:18;0.30;99.90
3792;DHT22;1911;53.768;11.474;2024-02-26T03:41:43;0.30;99.90
3792;DHT22;1911;53.768;11.474;2024-02-26T03:44:09;0.30;99.90
3792;DHT22;1911;53.768;11.474;2024-02-26T03:46:35;0.30;99.90
3792;DHT22;1911;53.768;11.474;2024-02-26T03:49:00;0.30;99.90
3792;DHT22;1911;53.768;11.474;2024-02-26T03:51:26;0.20;99.90
3792;DHT22;1911;53.768;11.474;2024-02-26T03:53:53;0.20;99.90
3792;DHT22;1911;53.768;11.474;2024-02-26T03:56:19;0.20;99.90
3792;DHT22;1911;53.768;11.474;2024-02-26T03:58:45;0.10;99.90
3792;DHT22;1911;53.768;11.474;2024-02-26T04:01:11;0.20;99.90
3792;DHT22;1911;53.768;11.474;2024-02-26T04:03:37;0.10;99.90
3792;DHT22;1911;53.768;11.474;2024-02-26T04:06:02;0.10;99.90
3792;DHT22;1911;53.768;11.474;2024-02-26T04:08:29;0.10;99.90
3792;DHT22;1911;53.768;11.474;2024-02-26T04:10:54;0.20;99.90
3792;DHT22;1911;53.768;11.474;2024-02-26T04:13:20;0.20;99.90
3792;DHT22;1911;53.768;11.474;2024-02-26T04:15:45;0.10;99.90
3792;DHT22;1911;53.768;11.474;2024-02-26T04:18:12;0.10;99.90
3792;DHT22;1911;53.768;11.474;2024-02-26T04:20:37;0.10;99.90
3792;DHT22;1911;53.768;11.474;2024-02-26T04:23:04;0.10;99.90
3792;DHT22;1911;53.768;11.474;2024-02-26T04:25:29;0.10;99.90
3792;DHT22;1911;53.768;11.474;2024-02-26T04:27:55;0.10;99.90
3792;DHT22;1911;53.768;11.474;2024-02-26T04:30:20;0.20;99.90
3792;DHT22;1911;53.768;11.474;2024-02-26T04:32:46;0.20;99.90
3792;DHT22;1911;53.768;11.474;2024-02-26T04:35:11;0.10;99.90
3792;DHT22;1911;53.768;11.474;2024-02-26T04:37:37;0.10;99.90
3792;DHT22;1911;53.768;11.474;2024-02-26T04:40:03;0.10;99.90
3792;DHT22;1911;53.768;11.474;2024-02-26T04:42:29;0.10;99.90
3792;DHT22;1911;53.768;11.474;2024-02-26T04:44:55;0.00;99.90
3792;DHT22;1911;53.768;11.474;2024-02-26T04:47:20;0.00;99.90
3792;DHT22;1911;53.768;11.474;2024-02-26T04:49:49;0.00;99.90
3792;DHT22;1911;53.768;11.474;2024-02-26T04:52:14;0.00;99.90
3792;DHT22;1911;53.768;11.474;2024-02-26T04:54:40;0.00;99.90
3792;DHT22;1911;53.768;11.474;2024-02-26T04:57:05;0.00;99.90
3792;DHT22;1911;53.768;11.474;2024-02-26T04:59:31;0.00;99.90
3792;DHT22;1911;53.768;11.474;2024-02-26T05:01:56;0.00;99.90
3792;DHT22;1911;53.768;11.474;2024-02-26T05:04:22;0.00;99.90
3792;DHT22;1911;53.768;11.474;2024-02-26T05:06:47;0.00;99.90
3792;DHT22;1911;53.768;11.474;2024-02-26T05:09:13;0.00;99.90
3792;DHT22;1911;53.768;11.474;2024-02-26T05:11:38;0.00;99.90
3792;DHT22;1911;53.768;11.474;2024-02-26T05:14:04;0.10;99.90
3792;DHT22;1911;53.768;11.474;2024-02-26T05:16:30;0.10;99.90
3792;DHT22;1911;53.768;11.474;2024-02-26T05:18:56;0.10;99.90
3792;DHT22;1911;53.768;11.474;2024-02-26T05:21:22;0.00;99.90
3792;DHT22;1911;53.768;11.474;2024-02-26T05:23:47;0.00;99.90
3792;DHT22;1911;53.768;11.474;2024-02-26T05:26:19;0.00;99.90
3792;DHT22;1911;53.768;11.474;2024-02-26T05:28:45;0.00;99.90
3792;DHT22;1911;53.768;11.474;2024-02-26T05:31:13;0.10;99.90
3792;DHT22;1911;53.768;11.474;2024-02-26T05:33:39;0.20;99.90
3792;DHT22;1911;53.768;11.474;2024-02-26T05:36:04;0.20;99.90
3792;DHT22;1911;53.768;11.474;2024-02-26T05:38:30;0.30;99.90
3792;DHT22;1911;53.768;11.474;2024-02-26T05:41:00;0.20;99.90
3792;DHT22;1911;53.768;11.474;2024-02-26T05:43:26;0.30;99.90
3792;DHT22;1911;53.768;11.474;2024-02-26T05:45:52;0.30;99.90
3792;DHT22;1911;53.768;11.474;2024-02-26T05:48:18;0.30;99.90
3792;DHT22;1911;53.768;11.474;2024-02-26T05:50:45;0.30;99.90
3792;DHT22;1911;53.768;11.474;2024-02-26T05:53:10;0.20;99.90
3792;DHT22;1911;53.768;11.474;2024-02-26T05:55:36;0.20;99.90
3792;DHT22;1911;53.768;11.474;2024-02-26T05:58:01;0.20;99.90
3792;DHT22;1911;53.768;11.474;2024-02-26T06:00:27;0.10;99.90
3792;DHT22;1911;53.768;11.474;2024-02-26T06:02:53;0.10;99.90
3792;DHT22;1911;53.768;11.474;2024-02-26T06:05:18;0.10;99.90
3792;DHT22;1911;53.768;11.474;2024-02-26T06:07:44;0.10;99.90
3792;DHT22;1911;53.768;11.474;2024-02-26T06:10:10;0.10;99.90
3792;DHT22;1911;53.768;11.474;2024-02-26T06:12:36;0.10;99.90
3792;DHT22;1911;53.768;11.474;2024-02-26T06:15:02;0.20;99.90
3792;DHT22;1911;53.768;11.474;2024-02-26T06:17:28;0.20;99.90
3792;DHT22;1911;53.768;11.474;2024-02-26T06:19:53;0.20;99.90
3792;DHT22;1911;53.768;11.474;2024-02-26T06:22:19;0.20;99.90
3792;DHT22;1911;53.768;11.474;2024-02-26T06:24:45;0.20;99.90
3792;DHT22;1911;53.768;11.474;2024-02-26T06:27:10;0.20;99.90
3792;DHT22;1911;53.768;11.474;2024-02-26T06:29:36;0.30;99.90
3792;DHT22;1911;53.768;11.474;2024-02-26T06:32:01;0.30;99.90
3792;DHT22;1911;53.768;11.474;2024-02-26T06:34:27;0.30;99.90
3792;DHT22;1911;53.768;11.474;2024-02-26T06:36:53;0.30;99.90
3792;DHT22;1911;53.768;11.474;2024-02-26T06:39:18;0.30;99.90
3792;DHT22;1911;53.768;11.474;2024-02-26T06:41:44;0.30;99.90
3792;DHT22;1911;53.768;11.474;2024-02-26T06:44:12;0.20;99.90
3792;DHT22;1911;53.768;11.474;2024-02-26T06:46:38;0.20;99.90
3792;DHT22;1911;53.768;11.474;2024-02-26T06:49:03;0.20;99.90
3792;DHT22;1911;53.768;11.474;2024-02-26T06:51:29;0.20;99.90
3792;DHT22;1911;53.768;11.474;2024-02-26T06:53:55;0.30;99.90
3792;DHT22;1911;53.768;11.474;2024-02-26T06:56:20;0.30;99.90
3792;DHT22;1911;53.768;11.474;2024-02-26T06:58:46;0.40;99.90
3792;DHT22;1911;53.768;11.474;2024-02-26T07:01:12;0.50;99.90
3792;DHT22;1911;53.768;11.474;2024-02-26T07:03:40;0.50;99.90
3792;DHT22;1911;53.768;11.474;2024-02-26T07:06:06;0.50;99.90
3792;DHT22;1911;53.768;11.474;2024-02-26T07:08:32;0.60;99.90
3792;DHT22;1911;53.768;11.474;2024-02-26T07:10:57;0.70;99.90
3792;DHT22;1911;53.768;11.474;2024-02-26T07:13:23;0.70;99.90
3792;DHT22;1911;53.768;11.474;2024-02-26T07:15:49;0.80;99.90
3792;DHT22;1911;53.768;11.474;2024-02-26T07:18:14;0.80;99.90
3792;DHT22;1911;53.768;11.474;2024-02-26T07:20:40;0.80;99.90
3792;DHT22;1911;53.768;11.474;2024-02-26T07:23:05;0.90;99.90
3792;DHT22;1911;53.768;11.474;2024-02-26T07:25:33;0.90;99.90
3792;DHT22;1911;53.768;11.474;2024-02-26T07:27:59;0.90;99.90
3792;DHT22;1911;53.768;11.474;2024-02-26T07:30:24;1.00;99.90
3792;DHT22;1911;53.768;11.474;2024-02-26T07:32:50;0.90;99.90
3792;DHT22;1911;53.768;11.474;2024-02-26T07:35:16;1.00;99.90
3792;DHT22;1911;53.768;11.474;2024-02-26T07:37:43;1.00;99.90
3792;DHT22;1911;53.768;11.474;2024-02-26T07:40:08;1.00;99.90
3792;DHT22;1911;53.768;11.474;2024-02-26T07:42:34;1.00;99.90
3792;DHT22;1911;53.768;11.474;2024-02-26T07:45:00;1.10;99.90
3792;DHT22;1911;53.768;11.474;2024-02-26T07:47:25;1.20;99.90
3792;DHT22;1911;53.768;11.474;2024-02-26T07:49:51;1.20;99.90
3792;DHT22;1911;53.768;11.474;2024-02-26T07:52:17;1.30;99.90
3792;DHT22;1911;53.768;11.474;2024-02-26T07:54:42;1.40;99.90
3792;DHT22;1911;53.768;11.474;2024-02-26T07:57:08;1.60;99.90
3792;DHT22;1911;53.768;11.474;2024-02-26T07:59:33;1.70;99.90
3792;DHT22;1911;53.768;11.474;2024-02-26T08:01:59;1.70;99.90
3792;DHT22;1911;53.768;11.474;2024-02-26T08:04:26;1.80;99.90
3792;DHT22;1911;53.768;11.474;2024-02-26T08:06:52;1.80;99.90
3792;DHT22;1911;53.768;11.474;2024-02-26T08:09:17;1.90;99.90
3792;DHT22;1911;53.768;11.474;2024-02-26T08:11:43;2.10;99.90
3792;DHT22;1911;53.768;11.474;2024-02-26T08:14:08;2.20;99.90
3792;DHT22;1911;53.768;11.474;2024-02-26T08:16:34;2.20;99.90
3792;DHT22;1911;53.768;11.474;2024-02-26T08:18:59;2.40;99.90
3792;DHT22;1911;53.768;11.474;2024-02-26T08:21:25;2.70;99.90
3792;DHT22;1911;53.768;11.474;2024-02-26T08:23:51;3.10;99.90
3792;DHT22;1911;53.768;11.474;2024-02-26T08:26:16;3.40;99.90
3792;DHT22;1911;53.768;11.474;2024-02-26T08:28:42;3.70;99.90
3792;DHT22;1911;53.768;11.474;2024-02-26T08:31:07;4.00;99.90
3792;DHT22;1911;53.768;11.474;2024-02-26T08:33:33;4.00;99.90
3792;DHT22;1911;53.768;11.474;2024-02-26T08:36:04;4.10;99.90
3792;DHT22;1911;53.768;11.474;2024-02-26T08:38:30;4.30;99.90
3792;DHT22;1911;53.768;11.474;2024-02-26T08:40:56;4.30;99.90
3792;DHT22;1911;53.768;11.474;2024-02-26T08:43:21;4.60;99.90
3792;DHT22;1911;53.768;11.474;2024-02-26T08:45:47;4.60;99.90
3792;DHT22;1911;53.768;11.474;2024-02-26T08:48:12;4.70;99.90
3792;DHT22;1911;53.768;11.474;2024-02-26T08:50:38;4.60;99.90
3792;DHT22;1911;53.768;11.474;2024-02-26T08:53:03;4.50;99.90
3792;DHT22;1911;53.768;11.474;2024-02-26T08:55:29;4.60;99.90
3792;DHT22;1911;53.768;11.474;2024-02-26T08:57:55;4.80;99.90
3792;DHT22;1911;53.768;11.474;2024-02-26T09:00:21;5.00;99.90
3792;DHT22;1911;53.768;11.474;2024-02-26T09:02:49;5.20;99.90
3792;DHT22;1911;53.768;11.474;2024-02-26T09:05:15;5.60;99.90
3792;DHT22;1911;53.768;11.474;2024-02-26T09:07:41;5.80;99.90
3792;DHT22;1911;53.768;11.474;2024-02-26T09:10:07;5.90;99.90
3792;DHT22;1911;53.768;11.474;2024-02-26T09:12:36;5.70;99.90
3792;DHT22;1911;53.768;11.474;2024-02-26T09:15:02;5.60;99.90
3792;DHT22;1911;53.768;11.474;2024-02-26T09:17:27;5.70;99.90
3792;DHT22;1911;53.768;11.474;2024-02-26T09:19:53;5.70;99.90
3792;DHT22;1911;53.768;11.474;2024-02-26T09:22:18;5.70;99.90
3792;DHT22;1911;53.768;11.474;2024-02-26T09:24:44;5.80;99.90
3792;DHT22;1911;53.768;11.474;2024-02-26T09:27:09;5.70;99.90
3792;DHT22;1911;53.768;11.474;2024-02-26T09:29:35;5.60;99.90
3792;DHT22;1911;53.768;11.474;2024-02-26T09:32:01;5.50;99.90
3792;DHT22;1911;53.768;11.474;2024-02-26T09:34:27;5.40;99.90
3792;DHT22;1911;53.768;11.474;2024-02-26T09:36:52;5.50;99.90
3792;DHT22;1911;53.768;11.474;2024-02-26T09:39:18;5.60;99.90
3792;DHT22;1911;53.768;11.474;2024-02-26T09:41:47;5.70;99.90
3792;DHT22;1911;53.768;11.474;2024-02-26T09:44:18;5.60;99.90
3792;DHT22;1911;53.768;11.474;2024-02-26T09:46:44;5.60;99.90
3792;DHT22;1911;53.768;11.474;2024-02-26T09:49:11;5.50;99.90
3792;DHT22;1911;53.768;11.474;2024-02-26T09:51:38;5.60;99.90
3792;DHT22;1911;53.768;11.474;2024-02-26T09:54:08;5.70;99.90
3792;DHT22;1911;53.768;11.474;2024-02-26T09:56:35;5.70;99.90
3792;DHT22;1911;53.768;11.474;2024-02-26T09:59:01;5.80;99.90
3792;DHT22;1911;53.768;11.474;2024-02-26T10:01:29;6.00;99.90
3792;DHT22;1911;53.768;11.474;2024-02-26T10:03:59;6.10;99.90
3792;DHT22;1911;53.768;11.474;2024-02-26T10:06:26;6.20;99.90
3792;DHT22;1911;53.768;11.474;2024-02-26T10:08:54;6.20;99.90
3792;DHT22;1911;53.768;11.474;2024-02-26T10:11:20;6.20;99.90
3792;DHT22;1911;53.768;11.474;2024-02-26T10:13:47;6.30;99.90
3792;DHT22;1911;53.768;11.474;2024-02-26T10:16:13;6.30;99.90
3792;DHT22;1911;53.768;11.474;2024-02-26T10:18:52;6.30;99.90
3792;DHT22;1911;53.768;11.474;2024-02-26T10:21:22;6.40;99.90
3792;DHT22;1911;53.768;11.474;2024-02-26T10:23:48;6.40;99.90
3792;DHT22;1911;53.768;11.474;2024-02-26T10:26:14;6.60;99.90
3792;DHT22;1911;53.768;11.474;2024-02-26T10:28:42;6.60;99.90
3792;DHT22;1911;53.768;11.474;2024-02-26T10:31:09;6.60;99.90
3792;DHT22;1911;53.768;11.474;2024-02-26T10:33:38;6.70;99.90
3792;DHT22;1911;53.768;11.474;2024-02-26T10:36:05;6.70;99.90
3792;DHT22;1911;53.768;11.474;2024-02-26T10:38:35;6.70;99.90
3792;DHT22;1911;53.768;11.474;2024-02-26T10:41:06;6.80;99.90
3792;DHT22;1911;53.768;11.474;2024-02-26T10:43:31;6.90;99.90
3792;DHT22;1911;53.768;11.474;2024-02-26T10:45:57;6.90;99.90
3792;DHT22;1911;53.768;11.474;2024-02-26T10:48:23;6.90;99.90
3792;DHT22;1911;53.768;11.474;2024-02-26T10:50:49;6.80;99.90
3792;DHT22;1911;53.768;11.474;2024-02-26T10:53:17;6.80;99.90
3792;DHT22;1911;53.768;11.474;2024-02-26T10:55:58;6.90;99.90
3792;DHT22;1911;53.768;11.474;2024-02-26T10:58:27;7.10;99.90
3792;DHT22;1911;53.768;11.474;2024-02-26T11:00:56;7.20;99.90
3792;DHT22;1911;53.768;11.474;2024-02-26T11:03:22;7.20;99.90
3792;DHT22;1911;53.768;11.474;2024-02-26T11:05:49;7.20;99.90
3792;DHT22;1911;53.768;11.474;2024-02-26T11:11:37;7.30;99.90
3792;DHT22;1911;53.768;11.474;2024-02-26T11:14:03;7.50;99.90
3792;DHT22;1911;53.768;11.474;2024-02-26T11:16:31;7.50;99.90
3792;DHT22;1911;53.768;11.474;2024-02-26T11:18:57;7.40;99.90
3792;DHT22;1911;53.768;11.474;2024-02-26T11:21:23;7.50;99.90
3792;DHT22;1911;53.768;11.474;2024-02-26T11:23:56;7.60;99.90
3792;DHT22;1911;53.768;11.474;2024-02-26T11:26:22;7.50;99.90
3792;DHT22;1911;53.768;11.474;2024-02-26T11:28:49;7.60;99.90
3792;DHT22;1911;53.768;11.474;2024-02-26T11:31:16;7.70;99.90
3792;DHT22;1911;53.768;11.474;2024-02-26T11:33:43;7.80;99.90
3792;DHT22;1911;53.768;11.474;2024-02-26T11:36:10;7.70;99.90
3792;DHT22;1911;53.768;11.474;2024-02-26T11:38:36;7.80;99.90
3792;DHT22;1911;53.768;11.474;2024-02-26T11:41:02;7.70;99.90
3792;DHT22;1911;53.768;11.474;2024-02-26T11:44:00;7.80;99.90
3792;DHT22;1911;53.768;11.474;2024-02-26T11:46:31;7.70;99.90
3792;DHT22;1911;53.768;11.474;2024-02-26T11:49:01;7.60;99.90
3792;DHT22;1911;53.768;11.474;2024-02-26T11:51:32;7.80;99.90
3792;DHT22;1911;53.768;11.474;2024-02-26T11:57:38;7.50;99.90
3792;DHT22;1911;53.768;11.474;2024-02-26T12:02:55;7.80;99.90
3792;DHT22;1911;53.768;11.474;2024-02-26T12:05:26;8.00;99.90
3792;DHT22;1911;53.768;11.474;2024-02-26T12:10:27;7.90;99.90
3792;DHT22;1911;53.768;11.474;2024-02-26T12:13:14;8.00;99.90
3792;DHT22;1911;53.768;11.474;2024-02-26T12:15:44;8.00;99.90
3792;DHT22;1911;53.768;11.474;2024-02-26T12:18:17;7.90;99.90
3792;DHT22;1911;53.768;11.474;2024-02-26T12:20:43;7.70;99.90
3792;DHT22;1911;53.768;11.474;2024-02-26T12:23:16;7.50;99.90
3792;DHT22;1911;53.768;11.474;2024-02-26T12:25:44;7.60;99.90
3792;DHT22;1911;53.768;11.474;2024-02-26T12:28:09;7.70;99.90
3792;DHT22;1911;53.768;11.474;2024-02-26T12:30:35;7.90;99.90
3792;DHT22;1911;53.768;11.474;2024-02-26T12:33:01;8.00;99.90
3792;DHT22;1911;53.768;11.474;2024-02-26T12:35:28;8.00;99.90
3792;DHT22;1911;53.768;11.474;2024-02-26T12:37:54;8.00;99.90
3792;DHT22;1911;53.768;11.474;2024-02-26T12:40:20;7.90;99.90
3792;DHT22;1911;53.768;11.474;2024-02-26T12:42:45;7.80;99.90
3792;DHT22;1911;53.768;11.474;2024-02-26T12:45:12;7.80;99.90
3792;DHT22;1911;53.768;11.474;2024-02-26T12:47:42;7.70;99.90
3792;DHT22;1911;53.768;11.474;2024-02-26T12:50:09;7.60;99.90
3792;DHT22;1911;53.768;11.474;2024-02-26T12:52:39;7.60;99.90
3792;DHT22;1911;53.768;11.474;2024-02-26T12:55:06;7.50;99.90
3792;DHT22;1911;53.768;11.474;2024-02-26T12:57:39;7.50;99.90
3792;DHT22;1911;53.768;11.474;2024-02-26T13:00:05;7.50;99.90
3792;DHT22;1911;53.768;11.474;2024-02-26T13:02:35;7.60;99.90
3792;DHT22;1911;53.768;11.474;2024-02-26T13:05:02;7.70;99.90
3792;DHT22;1911;53.768;11.474;2024-02-26T13:07:28;7.60;99.90
3792;DHT22;1911;53.768;11.474;2024-02-26T13:09:54;7.70;99.90
3792;DHT22;1911;53.768;11.474;2024-02-26T13:12:20;7.70;99.90
3792;DHT22;1911;53.768;11.474;2024-02-26T13:14:46;7.70;99.90
3792;DHT22;1911;53.768;11.474;2024-02-26T13:17:12;7.80;99.90
3792;DHT22;1911;53.768;11.474;2024-02-26T13:19:37;7.70;99.90
3792;DHT22;1911;53.768;11.474;2024-02-26T13:22:04;7.60;99.90
3792;DHT22;1911;53.768;11.474;2024-02-26T13:24:32;7.80;99.90
3792;DHT22;1911;53.768;11.474;2024-02-26T13:26:57;7.70;99.90
3792;DHT22;1911;53.768;11.474;2024-02-26T13:29:23;7.60;99.90
3792;DHT22;1911;53.768;11.474;2024-02-26T13:31:55;7.60;99.90
3792;DHT22;1911;53.768;11.474;2024-02-26T13:34:26;7.60;99.90
3792;DHT22;1911;53.768;11.474;2024-02-26T13:36:53;7.60;99.90
3792;DHT22;1911;53.768;11.474;2024-02-26T13:39:24;7.40;99.90
3792;DHT22;1911;53.768;11.474;2024-02-26T13:41:50;7.50;99.90
3792;DHT22;1911;53.768;11.474;2024-02-26T13:44:16;7.50;99.90
3792;DHT22;1911;53.768;11.474;2024-02-26T13:46:42;7.50;99.90
3792;DHT22;1911;53.768;11.474;2024-02-26T13:49:09;7.40;99.90
3792;DHT22;1911;53.768;11.474;2024-02-26T13:51:35;7.40;99.90
3792;DHT22;1911;53.768;11.474;2024-02-26T13:54:02;7.20;99.90
3792;DHT22;1911;53.768;11.474;2024-02-26T13:56:28;7.00;99.90
3792;DHT22;1911;53.768;11.474;2024-02-26T13:58:53;7.00;99.90
3792;DHT22;1911;53.768;11.474;2024-02-26T14:01:19;6.80;99.90
3792;DHT22;1911;53.768;11.474;2024-02-26T14:03:45;6.90;99.90
3792;DHT22;1911;53.768;11.474;2024-02-26T14:06:10;7.00;99.90
3792;DHT22;1911;53.768;11.474;2024-02-26T14:08:36;6.90;99.90
3792;DHT22;1911;53.768;11.474;2024-02-26T14:11:01;6.80;99.90
3792;DHT22;1911;53.768;11.474;2024-02-26T14:13:27;6.80;99.90
3792;DHT22;1911;53.768;11.474;2024-02-26T14:15:53;6.70;99.90
3792;DHT22;1911;53.768;11.474;2024-02-26T14:18:18;6.60;99.90
3792;DHT22;1911;53.768;11.474;2024-02-26T14:20:44;6.60;99.90
3792;DHT22;1911;53.768;11.474;2024-02-26T14:23:10;6.60;99.90
3792;DHT22;1911;53.768;11.474;2024-02-26T14:25:36;6.40;99.90
3792;DHT22;1911;53.768;11.474;2024-02-26T14:28:02;6.40;99.90
3792;DHT22;1911;53.768;11.474;2024-02-26T14:30:28;6.20;99.90
3792;DHT22;1911;53.768;11.474;2024-02-26T14:32:54;6.30;99.90
3792;DHT22;1911;53.768;11.474;2024-02-26T14:35:19;6.20;99.90
3792;DHT22;1911;53.768;11.474;2024-02-26T14:37:45;6.10;99.90
3792;DHT22;1911;53.768;11.474;2024-02-26T14:40:13;6.20;99.90
3792;DHT22;1911;53.768;11.474;2024-02-26T14:42:39;6.10;99.90
3792;DHT22;1911;53.768;11.474;2024-02-26T14:45:05;6.10;99.90
3792;DHT22;1911;53.768;11.474;2024-02-26T14:47:34;6.10;99.90
3792;DHT22;1911;53.768;11.474;2024-02-26T14:49:59;6.00;99.90
3792;DHT22;1911;53.768;11.474;2024-02-26T14:52:25;5.80;99.90
3792;DHT22;1911;53.768;11.474;2024-02-26T14:54:51;5.80;99.90
3792;DHT22;1911;53.768;11.474;2024-02-26T14:57:16;5.70;99.90
3792;DHT22;1911;53.768;11.474;2024-02-26T14:59:42;5.70;99.90
3792;DHT22;1911;53.768;11.474;2024-02-26T15:02:09;5.50;99.90
3792;DHT22;1911;53.768;11.474;2024-02-26T15:04:36;5.50;99.90
3792;DHT22;1911;53.768;11.474;2024-02-26T15:07:01;5.40;99.90
3792;DHT22;1911;53.768;11.474;2024-02-26T15:09:27;5.30;99.90
3792;DHT22;1911;53.768;11.474;2024-02-26T15:11:52;5.30;99.90
3792;DHT22;1911;53.768;11.474;2024-02-26T15:14:18;5.30;99.90
3792;DHT22;1911;53.768;11.474;2024-02-26T15:16:43;5.20;99.90
3792;DHT22;1911;53.768;11.474;2024-02-26T15:19:09;5.20;99.90
3792;DHT22;1911;53.768;11.474;2024-02-26T15:21:42;5.20;99.90
3792;DHT22;1911;53.768;11.474;2024-02-26T15:24:08;5.20;99.90
3792;DHT22;1911;53.768;11.474;2024-02-26T15:26:36;5.20;99.90
3792;DHT22;1911;53.768;11.474;2024-02-26T15:29:01;5.20;99.90
3792;DHT22;1911;53.768;11.474;2024-02-26T15:31:27;5.20;99.90
3792;DHT22;1911;53.768;11.474;2024-02-26T15:33:52;5.20;99.90
3792;DHT22;1911;53.768;11.474;2024-02-26T15:36:18;5.30;99.90
3792;DHT22;1911;53.768;11.474;2024-02-26T15:38:44;5.20;99.90
3792;DHT22;1911;53.768;11.474;2024-02-26T15:41:13;5.20;99.90
3792;DHT22;1911;53.768;11.474;2024-02-26T15:43:39;5.20;99.90
3792;DHT22;1911;53.768;11.474;2024-02-26T15:46:04;5.20;99.90
3792;DHT22;1911;53.768;11.474;2024-02-26T15:48:31;5.20;99.90
3792;DHT22;1911;53.768;11.474;2024-02-26T15:50:57;5.10;99.90
3792;DHT22;1911;53.768;11.474;2024-02-26T15:53:22;5.10;99.90
3792;DHT22;1911;53.768;11.474;2024-02-26T15:55:48;5.00;99.90
3792;DHT22;1911;53.768;11.474;2024-02-26T15:58:14;4.90;99.90
3792;DHT22;1911;53.768;11.474;2024-02-26T16:00:41;4.80;99.90
3792;DHT22;1911;53.768;11.474;2024-02-26T16:03:07;4.70;99.90
3792;DHT22;1911;53.768;11.474;2024-02-26T16:05:32;4.60;99.90
3792;DHT22;1911;53.768;11.474;2024-02-26T16:08:02;4.60;99.90
3792;DHT22;1911;53.768;11.474;2024-02-26T16:10:29;4.60;99.90